sensor_id;sensor_type;location;lat;lon;timestamp;P1;durP1;ratioP1;P2;durP2;ratioP2
35993;SDS011;22066;54.274;18.578;2023-01-08T00:01:58;73.67;;;18.43;;
35993;SDS011;22066;54.274;18.578;2023-01-08T00:04:24;76.30;;;20.53;;
35993;SDS011;22066;54.274;18.578;2023-01-08T00:06:50;103.67;;;22.27;;
35993;SDS011;22066;54.274;18.578;2023-01-08T00:09:16;74.60;;;19.77;;
35993;SDS011;22066;54.274;18.578;2023-01-08T00:11:42;99.77;;;19.07;;
35993;SDS011;22066;54.274;18.578;2023-01-08T00:14:08;148.77;;;23.63;;
35993;SDS011;22066;54.274;18.578;2023-01-08T00:16:34;77.83;;;19.03;;
35993;SDS011;22066;54.274;18.578;2023-01-08T00:19:00;79.03;;;19.27;;
35993;SDS011;22066;54.274;18.578;2023-01-08T00:21:27;91.17;;;19.67;;
35993;SDS011;22066;54.274;18.578;2023-01-08T00:23:53;82.23;;;17.33;;
35993;SDS011;22066;54.274;18.578;2023-01-08T00:26:19;62.10;;;15.37;;
35993;SDS011;22066;54.274;18.578;2023-01-08T00:28:46;93.73;;;17.13;;
35993;SDS011;22066;54.274;18.578;2023-01-08T00:31:12;72.40;;;16.67;;
35993;SDS011;22066;54.274;18.578;2023-01-08T00:33:38;84.13;;;17.63;;
35993;SDS011;22066;54.274;18.578;2023-01-08T00:36:08;115.57;;;18.10;;
35993;SDS011;22066;54.274;18.578;2023-01-08T00:38:34;115.23;;;17.00;;
35993;SDS011;22066;54.274;18.578;2023-01-08T00:41:01;102.47;;;17.33;;
35993;SDS011;22066;54.274;18.578;2023-01-08T00:43:27;113.53;;;16.77;;
35993;SDS011;22066;54.274;18.578;2023-01-08T00:45:53;85.63;;;16.43;;
35993;SDS011;22066;54.274;18.578;2023-01-08T00:48:19;109.90;;;16.80;;
35993;SDS011;22066;54.274;18.578;2023-01-08T00:50:52;64.83;;;15.93;;
35993;SDS011;22066;54.274;18.578;2023-01-08T00:53:18;70.83;;;15.70;;
35993;SDS011;22066;54.274;18.578;2023-01-08T00:55:45;62.20;;;14.07;;
35993;SDS011;22066;54.274;18.578;2023-01-08T00:58:11;63.87;;;15.80;;
35993;SDS011;22066;54.274;18.578;2023-01-08T01:00:37;77.73;;;16.03;;
35993;SDS011;22066;54.274;18.578;2023-01-08T01:03:03;102.60;;;15.80;;
35993;SDS011;22066;54.274;18.578;2023-01-08T01:05:29;110.53;;;17.30;;
35993;SDS011;22066;54.274;18.578;2023-01-08T01:07:55;80.27;;;17.70;;
35993;SDS011;22066;54.274;18.578;2023-01-08T01:10:22;120.70;;;17.73;;
35993;SDS011;22066;54.274;18.578;2023-01-08T01:12:48;77.93;;;15.87;;
35993;SDS011;22066;54.274;18.578;2023-01-08T01:15:15;88.63;;;15.23;;
35993;SDS011;22066;54.274;18.578;2023-01-08T01:17:43;73.43;;;15.55;;
35993;SDS011;22066;54.274;18.578;2023-01-08T01:20:10;85.33;;;16.50;;
35993;SDS011;22066;54.274;18.578;2023-01-08T01:22:37;78.07;;;12.85;;
35993;SDS011;22066;54.274;18.578;2023-01-08T01:25:03;87.90;;;18.33;;
35993;SDS011;22066;54.274;18.578;2023-01-08T01:27:30;50.87;;;15.47;;
35993;SDS011;22066;54.274;18.578;2023-01-08T01:29:56;88.83;;;17.67;;
35993;SDS011;22066;54.274;18.578;2023-01-08T01:32:22;84.07;;;22.50;;
35993;SDS011;22066;54.274;18.578;2023-01-08T01:34:48;71.70;;;20.10;;
35993;SDS011;22066;54.274;18.578;2023-01-08T01:37:14;63.43;;;18.77;;
35993;SDS011;22066;54.274;18.578;2023-01-08T01:39:40;71.33;;;20.93;;
35993;SDS011;22066;54.274;18.578;2023-01-08T01:42:17;82.10;;;22.20;;
35993;SDS011;22066;54.274;18.578;2023-01-08T01:45:03;68.63;;;20.63;;
35993;SDS011;22066;54.274;18.578;2023-01-08T01:47:32;79.37;;;21.27;;
35993;SDS011;22066;54.274;18.578;2023-01-08T01:52:36;76.67;;;22.00;;
35993;SDS011;22066;54.274;18.578;2023-01-08T01:55:03;65.53;;;20.73;;
35993;SDS011;22066;54.274;18.578;2023-01-08T01:57:30;72.70;;;23.73;;
35993;SDS011;22066;54.274;18.578;2023-01-08T01:59:57;81.13;;;24.97;;
35993;SDS011;22066;54.274;18.578;2023-01-08T02:05:30;72.87;;;21.20;;
35993;SDS011;22066;54.274;18.578;2023-01-08T02:08:01;88.80;;;25.80;;
35993;SDS011;22066;54.274;18.578;2023-01-08T02:13:03;72.63;;;23.67;;
35993;SDS011;22066;54.274;18.578;2023-01-08T02:15:41;68.73;;;22.73;;
35993;SDS011;22066;54.274;18.578;2023-01-08T02:20:39;66.50;;;23.17;;
35993;SDS011;22066;54.274;18.578;2023-01-08T02:28:37;68.23;;;21.93;;
35993;SDS011;22066;54.274;18.578;2023-01-08T02:31:04;71.33;;;23.40;;
35993;SDS011;22066;54.274;18.578;2023-01-08T02:33:31;74.97;;;21.53;;
35993;SDS011;22066;54.274;18.578;2023-01-08T02:38:52;66.87;;;22.70;;
35993;SDS011;22066;54.274;18.578;2023-01-08T02:41:21;58.13;;;18.63;;
35993;SDS011;22066;54.274;18.578;2023-01-08T02:43:49;66.22;;;20.08;;
35993;SDS011;22066;54.274;18.578;2023-01-08T02:46:18;63.78;;;20.60;;
35993;SDS011;22066;54.274;18.578;2023-01-08T02:48:51;68.47;;;20.83;;
35993;SDS011;22066;54.274;18.578;2023-01-08T02:51:23;67.00;;;21.17;;
35993;SDS011;22066;54.274;18.578;2023-01-08T02:53:53;63.50;;;20.70;;
35993;SDS011;22066;54.274;18.578;2023-01-08T02:56:23;71.77;;;21.30;;
35993;SDS011;22066;54.274;18.578;2023-01-08T02:58:51;62.77;;;21.47;;
35993;SDS011;22066;54.274;18.578;2023-01-08T03:01:19;74.30;;;23.07;;
35993;SDS011;22066;54.274;18.578;2023-01-08T03:03:48;61.22;;;20.80;;
35993;SDS011;22066;54.274;18.578;2023-01-08T03:06:16;66.10;;;20.23;;
35993;SDS011;22066;54.274;18.578;2023-01-08T03:08:43;46.53;;;15.68;;
35993;SDS011;22066;54.274;18.578;2023-01-08T03:11:10;68.43;;;21.30;;
35993;SDS011;22066;54.274;18.578;2023-01-08T03:16:17;67.67;;;22.47;;
35993;SDS011;22066;54.274;18.578;2023-01-08T03:18:51;68.20;;;21.27;;
35993;SDS011;22066;54.274;18.578;2023-01-08T03:21:17;67.33;;;19.13;;
35993;SDS011;22066;54.274;18.578;2023-01-08T03:23:44;62.97;;;21.73;;
35993;SDS011;22066;54.274;18.578;2023-01-08T03:26:12;57.58;;;20.00;;
35993;SDS011;22066;54.274;18.578;2023-01-08T03:28:43;57.08;;;18.75;;
35993;SDS011;22066;54.274;18.578;2023-01-08T03:31:14;63.97;;;21.27;;
35993;SDS011;22066;54.274;18.578;2023-01-08T03:33:41;63.97;;;20.47;;
35993;SDS011;22066;54.274;18.578;2023-01-08T03:36:07;52.67;;;17.77;;
35993;SDS011;22066;54.274;18.578;2023-01-08T03:41:06;50.57;;;16.80;;
35993;SDS011;22066;54.274;18.578;2023-01-08T03:43:33;56.33;;;17.77;;
35993;SDS011;22066;54.274;18.578;2023-01-08T03:46:01;60.50;;;19.43;;
35993;SDS011;22066;54.274;18.578;2023-01-08T03:48:28;50.90;;;18.52;;
35993;SDS011;22066;54.274;18.578;2023-01-08T03:50:55;58.33;;;21.53;;
35993;SDS011;22066;54.274;18.578;2023-01-08T03:53:21;62.40;;;20.63;;
35993;SDS011;22066;54.274;18.578;2023-01-08T03:55:47;55.30;;;18.50;;
35993;SDS011;22066;54.274;18.578;2023-01-08T03:58:13;52.03;;;19.57;;
35993;SDS011;22066;54.274;18.578;2023-01-08T04:00:39;57.13;;;20.17;;
35993;SDS011;22066;54.274;18.578;2023-01-08T04:03:05;58.43;;;19.57;;
35993;SDS011;22066;54.274;18.578;2023-01-08T04:05:31;51.80;;;17.93;;
35993;SDS011;22066;54.274;18.578;2023-01-08T04:07:57;54.83;;;19.20;;
35993;SDS011;22066;54.274;18.578;2023-01-08T04:10:23;63.10;;;21.87;;
35993;SDS011;22066;54.274;18.578;2023-01-08T04:12:49;56.83;;;17.83;;
35993;SDS011;22066;54.274;18.578;2023-01-08T04:15:16;58.17;;;21.53;;
35993;SDS011;22066;54.274;18.578;2023-01-08T04:17:42;54.03;;;19.17;;
35993;SDS011;22066;54.274;18.578;2023-01-08T04:20:08;55.03;;;19.40;;
35993;SDS011;22066;54.274;18.578;2023-01-08T04:22:34;58.93;;;20.40;;
35993;SDS011;22066;54.274;18.578;2023-01-08T04:25:00;51.47;;;18.77;;
35993;SDS011;22066;54.274;18.578;2023-01-08T04:27:26;54.13;;;18.23;;
35993;SDS011;22066;54.274;18.578;2023-01-08T04:29:52;64.63;;;23.87;;
35993;SDS011;22066;54.274;18.578;2023-01-08T04:32:18;52.57;;;18.30;;
35993;SDS011;22066;54.274;18.578;2023-01-08T04:34:45;46.80;;;17.43;;
35993;SDS011;22066;54.274;18.578;2023-01-08T04:37:11;51.90;;;20.47;;
35993;SDS011;22066;54.274;18.578;2023-01-08T04:39:37;48.97;;;18.47;;
35993;SDS011;22066;54.274;18.578;2023-01-08T04:42:03;46.43;;;17.57;;
35993;SDS011;22066;54.274;18.578;2023-01-08T04:44:29;44.83;;;16.17;;
35993;SDS011;22066;54.274;18.578;2023-01-08T04:46:55;50.00;;;19.07;;
35993;SDS011;22066;54.274;18.578;2023-01-08T04:49:21;54.47;;;17.37;;
35993;SDS011;22066;54.274;18.578;2023-01-08T04:51:47;34.80;;;13.17;;
35993;SDS011;22066;54.274;18.578;2023-01-08T04:54:13;36.57;;;14.00;;
35993;SDS011;22066;54.274;18.578;2023-01-08T04:56:39;45.20;;;17.20;;
35993;SDS011;22066;54.274;18.578;2023-01-08T04:59:05;44.97;;;17.37;;
35993;SDS011;22066;54.274;18.578;2023-01-08T05:01:31;52.73;;;19.40;;
35993;SDS011;22066;54.274;18.578;2023-01-08T05:03:59;44.10;;;17.77;;
35993;SDS011;22066;54.274;18.578;2023-01-08T05:06:25;42.85;;;17.05;;
35993;SDS011;22066;54.274;18.578;2023-01-08T05:08:52;38.57;;;16.17;;
35993;SDS011;22066;54.274;18.578;2023-01-08T05:11:18;39.60;;;13.67;;
35993;SDS011;22066;54.274;18.578;2023-01-08T05:13:48;46.43;;;15.50;;
35993;SDS011;22066;54.274;18.578;2023-01-08T05:16:14;45.30;;;18.00;;
35993;SDS011;22066;54.274;18.578;2023-01-08T05:18:40;43.30;;;15.70;;
35993;SDS011;22066;54.274;18.578;2023-01-08T05:21:06;49.23;;;18.50;;
35993;SDS011;22066;54.274;18.578;2023-01-08T05:23:32;49.03;;;18.07;;
35993;SDS011;22066;54.274;18.578;2023-01-08T05:25:59;45.13;;;14.33;;
35993;SDS011;22066;54.274;18.578;2023-01-08T05:28:26;42.10;;;16.10;;
35993;SDS011;22066;54.274;18.578;2023-01-08T05:30:52;38.73;;;16.53;;
35993;SDS011;22066;54.274;18.578;2023-01-08T05:33:19;51.53;;;18.93;;
35993;SDS011;22066;54.274;18.578;2023-01-08T05:35:45;47.60;;;18.90;;
35993;SDS011;22066;54.274;18.578;2023-01-08T05:38:11;49.30;;;18.43;;
35993;SDS011;22066;54.274;18.578;2023-01-08T05:40:37;45.40;;;17.57;;
35993;SDS011;22066;54.274;18.578;2023-01-08T05:43:03;48.57;;;19.50;;
35993;SDS011;22066;54.274;18.578;2023-01-08T05:45:30;46.43;;;18.57;;
35993;SDS011;22066;54.274;18.578;2023-01-08T05:47:56;51.87;;;20.53;;
35993;SDS011;22066;54.274;18.578;2023-01-08T05:50:22;56.27;;;22.27;;
35993;SDS011;22066;54.274;18.578;2023-01-08T05:52:48;56.50;;;23.10;;
35993;SDS011;22066;54.274;18.578;2023-01-08T05:55:14;56.27;;;22.20;;
35993;SDS011;22066;54.274;18.578;2023-01-08T05:57:40;56.63;;;21.10;;
35993;SDS011;22066;54.274;18.578;2023-01-08T06:00:07;57.70;;;20.97;;
35993;SDS011;22066;54.274;18.578;2023-01-08T06:02:33;42.90;;;17.07;;
35993;SDS011;22066;54.274;18.578;2023-01-08T06:04:59;60.70;;;22.57;;
35993;SDS011;22066;54.274;18.578;2023-01-08T06:07:27;54.33;;;21.83;;
35993;SDS011;22066;54.274;18.578;2023-01-08T06:09:53;60.00;;;23.02;;
35993;SDS011;22066;54.274;18.578;2023-01-08T06:12:19;64.57;;;23.97;;
35993;SDS011;22066;54.274;18.578;2023-01-08T06:14:45;56.77;;;22.90;;
35993;SDS011;22066;54.274;18.578;2023-01-08T06:17:11;61.90;;;23.50;;
35993;SDS011;22066;54.274;18.578;2023-01-08T06:19:39;64.33;;;23.47;;
35993;SDS011;22066;54.274;18.578;2023-01-08T06:22:05;57.70;;;20.37;;
35993;SDS011;22066;54.274;18.578;2023-01-08T06:24:31;49.13;;;19.10;;
35993;SDS011;22066;54.274;18.578;2023-01-08T06:26:57;52.47;;;20.60;;
35993;SDS011;22066;54.274;18.578;2023-01-08T06:29:23;52.20;;;21.13;;
35993;SDS011;22066;54.274;18.578;2023-01-08T06:31:49;51.07;;;22.80;;
35993;SDS011;22066;54.274;18.578;2023-01-08T06:34:15;46.27;;;19.77;;
35993;SDS011;22066;54.274;18.578;2023-01-08T06:36:41;53.67;;;20.40;;
35993;SDS011;22066;54.274;18.578;2023-01-08T06:39:07;45.90;;;17.83;;
35993;SDS011;22066;54.274;18.578;2023-01-08T06:41:33;63.77;;;26.00;;
35993;SDS011;22066;54.274;18.578;2023-01-08T06:44:00;56.33;;;19.07;;
35993;SDS011;22066;54.274;18.578;2023-01-08T06:46:26;49.23;;;18.30;;
35993;SDS011;22066;54.274;18.578;2023-01-08T06:48:52;48.40;;;19.53;;
35993;SDS011;22066;54.274;18.578;2023-01-08T06:51:18;51.93;;;20.17;;
35993;SDS011;22066;54.274;18.578;2023-01-08T06:53:46;56.37;;;22.13;;
35993;SDS011;22066;54.274;18.578;2023-01-08T06:56:12;52.05;;;21.55;;
35993;SDS011;22066;54.274;18.578;2023-01-08T06:58:38;49.80;;;19.93;;
35993;SDS011;22066;54.274;18.578;2023-01-08T07:01:04;51.10;;;19.10;;
35993;SDS011;22066;54.274;18.578;2023-01-08T07:03:31;48.13;;;19.17;;
35993;SDS011;22066;54.274;18.578;2023-01-08T07:05:57;53.30;;;22.67;;
35993;SDS011;22066;54.274;18.578;2023-01-08T07:08:23;35.20;;;16.30;;
35993;SDS011;22066;54.274;18.578;2023-01-08T07:10:49;47.13;;;18.57;;
35993;SDS011;22066;54.274;18.578;2023-01-08T07:13:15;51.77;;;22.17;;
35993;SDS011;22066;54.274;18.578;2023-01-08T07:15:41;42.53;;;19.50;;
35993;SDS011;22066;54.274;18.578;2023-01-08T07:18:08;50.47;;;20.00;;
35993;SDS011;22066;54.274;18.578;2023-01-08T07:20:34;54.27;;;22.50;;
35993;SDS011;22066;54.274;18.578;2023-01-08T07:23:05;47.73;;;20.43;;
35993;SDS011;22066;54.274;18.578;2023-01-08T07:25:31;47.80;;;19.80;;
35993;SDS011;22066;54.274;18.578;2023-01-08T07:27:57;52.57;;;21.77;;
35993;SDS011;22066;54.274;18.578;2023-01-08T07:30:24;45.37;;;20.23;;
35993;SDS011;22066;54.274;18.578;2023-01-08T07:32:50;45.30;;;18.80;;
35993;SDS011;22066;54.274;18.578;2023-01-08T07:35:16;48.80;;;22.43;;
35993;SDS011;22066;54.274;18.578;2023-01-08T07:37:42;51.97;;;19.60;;
35993;SDS011;22066;54.274;18.578;2023-01-08T07:40:09;53.67;;;20.97;;
35993;SDS011;22066;54.274;18.578;2023-01-08T07:42:36;47.20;;;22.10;;
35993;SDS011;22066;54.274;18.578;2023-01-08T07:45:02;53.43;;;22.77;;
35993;SDS011;22066;54.274;18.578;2023-01-08T07:47:28;51.03;;;19.37;;
35993;SDS011;22066;54.274;18.578;2023-01-08T07:49:54;45.10;;;20.43;;
35993;SDS011;22066;54.274;18.578;2023-01-08T07:52:20;47.73;;;20.23;;
35993;SDS011;22066;54.274;18.578;2023-01-08T07:54:46;43.33;;;17.67;;
35993;SDS011;22066;54.274;18.578;2023-01-08T07:57:12;43.97;;;20.37;;
35993;SDS011;22066;54.274;18.578;2023-01-08T07:59:38;45.20;;;21.17;;
35993;SDS011;22066;54.274;18.578;2023-01-08T08:02:04;44.83;;;21.17;;
35993;SDS011;22066;54.274;18.578;2023-01-08T08:04:30;44.47;;;19.37;;
35993;SDS011;22066;54.274;18.578;2023-01-08T08:06:56;47.30;;;20.50;;
35993;SDS011;22066;54.274;18.578;2023-01-08T08:09:22;51.73;;;21.20;;
35993;SDS011;22066;54.274;18.578;2023-01-08T08:11:48;42.30;;;17.80;;
35993;SDS011;22066;54.274;18.578;2023-01-08T08:14:14;50.63;;;21.93;;
35993;SDS011;22066;54.274;18.578;2023-01-08T08:16:40;50.30;;;23.70;;
35993;SDS011;22066;54.274;18.578;2023-01-08T08:19:06;40.70;;;19.70;;
35993;SDS011;22066;54.274;18.578;2023-01-08T08:21:32;48.73;;;19.10;;
35993;SDS011;22066;54.274;18.578;2023-01-08T08:23:58;40.07;;;18.97;;
35993;SDS011;22066;54.274;18.578;2023-01-08T08:26:24;45.50;;;19.47;;
35993;SDS011;22066;54.274;18.578;2023-01-08T08:28:50;44.87;;;19.77;;
35993;SDS011;22066;54.274;18.578;2023-01-08T08:31:16;43.33;;;21.73;;
35993;SDS011;22066;54.274;18.578;2023-01-08T08:33:42;47.23;;;21.87;;
35993;SDS011;22066;54.274;18.578;2023-01-08T08:36:08;42.57;;;19.17;;
35993;SDS011;22066;54.274;18.578;2023-01-08T08:38:35;34.33;;;15.07;;
35993;SDS011;22066;54.274;18.578;2023-01-08T08:41:02;46.40;;;18.77;;
35993;SDS011;22066;54.274;18.578;2023-01-08T08:43:28;72.67;;;17.67;;
35993;SDS011;22066;54.274;18.578;2023-01-08T08:45:55;38.53;;;17.00;;
35993;SDS011;22066;54.274;18.578;2023-01-08T08:48:21;35.60;;;19.27;;
35993;SDS011;22066;54.274;18.578;2023-01-08T08:50:47;44.80;;;19.03;;
35993;SDS011;22066;54.274;18.578;2023-01-08T08:53:13;39.50;;;17.03;;
35993;SDS011;22066;54.274;18.578;2023-01-08T08:55:40;44.90;;;19.33;;
35993;SDS011;22066;54.274;18.578;2023-01-08T08:58:07;40.73;;;16.13;;
35993;SDS011;22066;54.274;18.578;2023-01-08T09:00:35;38.53;;;21.37;;
35993;SDS011;22066;54.274;18.578;2023-01-08T09:03:01;42.10;;;16.77;;
35993;SDS011;22066;54.274;18.578;2023-01-08T09:05:27;47.70;;;20.47;;
35993;SDS011;22066;54.274;18.578;2023-01-08T09:07:54;46.03;;;22.00;;
35993;SDS011;22066;54.274;18.578;2023-01-08T09:10:20;26.47;;;11.30;;
35993;SDS011;22066;54.274;18.578;2023-01-08T09:12:47;40.07;;;18.20;;
35993;SDS011;22066;54.274;18.578;2023-01-08T09:15:13;35.10;;;16.60;;
35993;SDS011;22066;54.274;18.578;2023-01-08T09:17:39;38.37;;;17.27;;
35993;SDS011;22066;54.274;18.578;2023-01-08T09:20:05;39.03;;;17.33;;
35993;SDS011;22066;54.274;18.578;2023-01-08T09:22:31;33.40;;;14.43;;
35993;SDS011;22066;54.274;18.578;2023-01-08T09:24:57;31.00;;;14.57;;
35993;SDS011;22066;54.274;18.578;2023-01-08T09:27:23;41.10;;;20.10;;
35993;SDS011;22066;54.274;18.578;2023-01-08T09:29:49;29.70;;;14.63;;
35993;SDS011;22066;54.274;18.578;2023-01-08T09:32:15;43.47;;;18.03;;
35993;SDS011;22066;54.274;18.578;2023-01-08T09:34:41;45.90;;;18.53;;
35993;SDS011;22066;54.274;18.578;2023-01-08T09:37:07;42.93;;;17.33;;
35993;SDS011;22066;54.274;18.578;2023-01-08T09:39:34;36.13;;;15.43;;
35993;SDS011;22066;54.274;18.578;2023-01-08T09:42:01;37.37;;;17.67;;
35993;SDS011;22066;54.274;18.578;2023-01-08T09:44:30;37.92;;;13.27;;
35993;SDS011;22066;54.274;18.578;2023-01-08T09:46:58;35.60;;;17.70;;
35993;SDS011;22066;54.274;18.578;2023-01-08T09:49:26;35.53;;;15.67;;
35993;SDS011;22066;54.274;18.578;2023-01-08T09:51:57;36.40;;;16.37;;
35993;SDS011;22066;54.274;18.578;2023-01-08T09:54:23;40.70;;;19.07;;
35993;SDS011;22066;54.274;18.578;2023-01-08T09:56:51;39.50;;;18.40;;
35993;SDS011;22066;54.274;18.578;2023-01-08T09:59:17;35.30;;;14.23;;
35993;SDS011;22066;54.274;18.578;2023-01-08T10:01:43;25.23;;;12.57;;
35993;SDS011;22066;54.274;18.578;2023-01-08T10:06:36;48.17;;;17.17;;
35993;SDS011;22066;54.274;18.578;2023-01-08T10:09:02;44.57;;;20.23;;
35993;SDS011;22066;54.274;18.578;2023-01-08T10:11:30;40.60;;;17.53;;
35993;SDS011;22066;54.274;18.578;2023-01-08T10:13:59;47.57;;;20.47;;
35993;SDS011;22066;54.274;18.578;2023-01-08T10:16:28;51.97;;;27.87;;
35993;SDS011;22066;54.274;18.578;2023-01-08T10:18:56;43.00;;;17.17;;
35993;SDS011;22066;54.274;18.578;2023-01-08T10:21:26;51.37;;;20.90;;
35993;SDS011;22066;54.274;18.578;2023-01-08T10:23:53;41.17;;;17.80;;
35993;SDS011;22066;54.274;18.578;2023-01-08T10:26:27;41.13;;;20.73;;
35993;SDS011;22066;54.274;18.578;2023-01-08T10:29:04;39.87;;;19.80;;
35993;SDS011;22066;54.274;18.578;2023-01-08T10:31:30;37.03;;;13.83;;
35993;SDS011;22066;54.274;18.578;2023-01-08T10:34:05;43.73;;;17.97;;
35993;SDS011;22066;54.274;18.578;2023-01-08T10:36:36;44.70;;;21.43;;
35993;SDS011;22066;54.274;18.578;2023-01-08T10:39:03;43.43;;;22.03;;
35993;SDS011;22066;54.274;18.578;2023-01-08T10:41:30;44.77;;;19.70;;
35993;SDS011;22066;54.274;18.578;2023-01-08T10:44:01;48.10;;;23.87;;
35993;SDS011;22066;54.274;18.578;2023-01-08T10:46:29;33.23;;;14.93;;
35993;SDS011;22066;54.274;18.578;2023-01-08T10:48:57;32.90;;;14.70;;
35993;SDS011;22066;54.274;18.578;2023-01-08T10:51:25;53.15;;;20.55;;
35993;SDS011;22066;54.274;18.578;2023-01-08T10:53:51;57.67;;;28.27;;
35993;SDS011;22066;54.274;18.578;2023-01-08T10:56:19;48.33;;;22.87;;
35993;SDS011;22066;54.274;18.578;2023-01-08T10:58:46;34.80;;;15.38;;
35993;SDS011;22066;54.274;18.578;2023-01-08T11:03:47;41.93;;;15.67;;
35993;SDS011;22066;54.274;18.578;2023-01-08T11:06:19;52.43;;;25.00;;
35993;SDS011;22066;54.274;18.578;2023-01-08T11:08:49;51.73;;;23.20;;
35993;SDS011;22066;54.274;18.578;2023-01-08T11:11:16;49.87;;;24.20;;
35993;SDS011;22066;54.274;18.578;2023-01-08T11:13:59;56.40;;;24.97;;
35993;SDS011;22066;54.274;18.578;2023-01-08T11:16:32;44.73;;;18.57;;
35993;SDS011;22066;54.274;18.578;2023-01-08T11:18:59;41.33;;;16.40;;
35993;SDS011;22066;54.274;18.578;2023-01-08T11:21:26;42.10;;;16.03;;
35993;SDS011;22066;54.274;18.578;2023-01-08T11:24:10;57.93;;;23.17;;
35993;SDS011;22066;54.274;18.578;2023-01-08T11:26:42;55.70;;;24.87;;
35993;SDS011;22066;54.274;18.578;2023-01-08T11:29:16;37.05;;;15.40;;
35993;SDS011;22066;54.274;18.578;2023-01-08T11:34:32;70.30;;;42.60;;
35993;SDS011;22066;54.274;18.578;2023-01-08T11:37:04;54.33;;;29.00;;
35993;SDS011;22066;54.274;18.578;2023-01-08T11:39:34;31.37;;;14.53;;
35993;SDS011;22066;54.274;18.578;2023-01-08T11:42:08;39.97;;;17.33;;
35993;SDS011;22066;54.274;18.578;2023-01-08T11:44:50;45.50;;;18.13;;
35993;SDS011;22066;54.274;18.578;2023-01-08T11:52:39;48.03;;;20.93;;
35993;SDS011;22066;54.274;18.578;2023-01-08T12:03:00;46.10;;;17.63;;
35993;SDS011;22066;54.274;18.578;2023-01-08T12:05:37;34.23;;;13.30;;
35993;SDS011;22066;54.274;18.578;2023-01-08T12:08:07;42.27;;;16.93;;
35993;SDS011;22066;54.274;18.578;2023-01-08T12:20:50;34.23;;;14.97;;
35993;SDS011;22066;54.274;18.578;2023-01-08T12:28:26;30.63;;;14.03;;
35993;SDS011;22066;54.274;18.578;2023-01-08T12:36:10;26.00;;;11.93;;
35993;SDS011;22066;54.274;18.578;2023-01-08T12:38:39;38.13;;;15.50;;
35993;SDS011;22066;54.274;18.578;2023-01-08T12:41:26;40.70;;;17.87;;
35993;SDS011;22066;54.274;18.578;2023-01-08T12:43:57;31.20;;;14.77;;
35993;SDS011;22066;54.274;18.578;2023-01-08T12:46:25;37.60;;;16.23;;
35993;SDS011;22066;54.274;18.578;2023-01-08T12:48:52;35.58;;;16.17;;
35993;SDS011;22066;54.274;18.578;2023-01-08T12:59:59;38.37;;;17.87;;
35993;SDS011;22066;54.274;18.578;2023-01-08T13:04:38;45.13;;;16.30;;
35993;SDS011;22066;54.274;18.578;2023-01-08T13:07:05;40.63;;;17.23;;
35993;SDS011;22066;54.274;18.578;2023-01-08T13:09:31;41.20;;;17.90;;
35993;SDS011;22066;54.274;18.578;2023-01-08T13:11:58;37.57;;;16.10;;
35993;SDS011;22066;54.274;18.578;2023-01-08T13:14:24;35.20;;;13.93;;
35993;SDS011;22066;54.274;18.578;2023-01-08T13:17:04;39.87;;;17.37;;
35993;SDS011;22066;54.274;18.578;2023-01-08T13:19:33;45.87;;;18.17;;
35993;SDS011;22066;54.274;18.578;2023-01-08T13:22:02;40.90;;;17.47;;
35993;SDS011;22066;54.274;18.578;2023-01-08T13:24:32;41.13;;;17.70;;
35993;SDS011;22066;54.274;18.578;2023-01-08T13:29:57;44.87;;;17.83;;
35993;SDS011;22066;54.274;18.578;2023-01-08T13:35:34;48.20;;;20.57;;
35993;SDS011;22066;54.274;18.578;2023-01-08T13:37:36;35.30;;;17.10;;
35993;SDS011;22066;54.274;18.578;2023-01-08T13:40:02;38.33;;;15.97;;
35993;SDS011;22066;54.274;18.578;2023-01-08T13:42:31;39.97;;;18.20;;
35993;SDS011;22066;54.274;18.578;2023-01-08T13:45:01;41.85;;;15.63;;
35993;SDS011;22066;54.274;18.578;2023-01-08T13:47:33;34.37;;;14.30;;
35993;SDS011;22066;54.274;18.578;2023-01-08T13:50:13;27.83;;;13.20;;
35993;SDS011;22066;54.274;18.578;2023-01-08T13:52:44;36.80;;;16.03;;
35993;SDS011;22066;54.274;18.578;2023-01-08T13:55:20;35.93;;;16.17;;
35993;SDS011;22066;54.274;18.578;2023-01-08T13:57:51;25.00;;;12.20;;
35993;SDS011;22066;54.274;18.578;2023-01-08T14:00:23;40.03;;;17.17;;
35993;SDS011;22066;54.274;18.578;2023-01-08T14:02:49;41.33;;;16.20;;
35993;SDS011;22066;54.274;18.578;2023-01-08T14:07:48;43.63;;;20.20;;
35993;SDS011;22066;54.274;18.578;2023-01-08T14:10:14;168.40;;;57.40;;
35993;SDS011;22066;54.274;18.578;2023-01-08T14:12:41;63.80;;;27.37;;
35993;SDS011;22066;54.274;18.578;2023-01-08T14:15:08;49.13;;;20.87;;
35993;SDS011;22066;54.274;18.578;2023-01-08T14:17:35;85.75;;;34.15;;
35993;SDS011;22066;54.274;18.578;2023-01-08T14:20:01;75.13;;;31.67;;
35993;SDS011;22066;54.274;18.578;2023-01-08T14:22:33;77.03;;;38.23;;
35993;SDS011;22066;54.274;18.578;2023-01-08T14:25:01;91.13;;;39.57;;
35993;SDS011;22066;54.274;18.578;2023-01-08T14:27:29;111.70;;;49.88;;
35993;SDS011;22066;54.274;18.578;2023-01-08T14:29:56;48.10;;;20.05;;
35993;SDS011;22066;54.274;18.578;2023-01-08T14:32:23;65.97;;;29.73;;
35993;SDS011;22066;54.274;18.578;2023-01-08T14:34:50;42.80;;;22.00;;
35993;SDS011;22066;54.274;18.578;2023-01-08T14:37:17;50.53;;;22.93;;
35993;SDS011;22066;54.274;18.578;2023-01-08T14:39:44;38.63;;;17.87;;
35993;SDS011;22066;54.274;18.578;2023-01-08T14:44:57;35.40;;;15.50;;
35993;SDS011;22066;54.274;18.578;2023-01-08T14:47:26;36.10;;;15.40;;
35993;SDS011;22066;54.274;18.578;2023-01-08T14:49:54;47.67;;;19.50;;
35993;SDS011;22066;54.274;18.578;2023-01-08T14:52:21;41.97;;;18.90;;
35993;SDS011;22066;54.274;18.578;2023-01-08T14:54:48;36.20;;;16.63;;
35993;SDS011;22066;54.274;18.578;2023-01-08T14:59:41;45.13;;;19.10;;
35993;SDS011;22066;54.274;18.578;2023-01-08T15:02:17;47.67;;;22.07;;
35993;SDS011;22066;54.274;18.578;2023-01-08T15:04:47;43.47;;;20.37;;
35993;SDS011;22066;54.274;18.578;2023-01-08T15:07:19;38.87;;;17.63;;
35993;SDS011;22066;54.274;18.578;2023-01-08T15:09:55;43.03;;;17.30;;
35993;SDS011;22066;54.274;18.578;2023-01-08T15:12:24;47.37;;;20.67;;
35993;SDS011;22066;54.274;18.578;2023-01-08T15:14:51;41.47;;;18.27;;
35993;SDS011;22066;54.274;18.578;2023-01-08T15:17:19;36.10;;;15.82;;
35993;SDS011;22066;54.274;18.578;2023-01-08T15:19:50;40.80;;;21.07;;
35993;SDS011;22066;54.274;18.578;2023-01-08T15:22:27;43.50;;;18.93;;
35993;SDS011;22066;54.274;18.578;2023-01-08T15:25:04;39.00;;;17.50;;
35993;SDS011;22066;54.274;18.578;2023-01-08T15:27:31;35.60;;;15.27;;
35993;SDS011;22066;54.274;18.578;2023-01-08T15:30:01;39.43;;;18.30;;
35993;SDS011;22066;54.274;18.578;2023-01-08T15:34:59;44.73;;;19.37;;
35993;SDS011;22066;54.274;18.578;2023-01-08T15:37:25;43.20;;;19.13;;
35993;SDS011;22066;54.274;18.578;2023-01-08T15:39:51;40.93;;;18.00;;
35993;SDS011;22066;54.274;18.578;2023-01-08T15:42:22;32.03;;;14.10;;
35993;SDS011;22066;54.274;18.578;2023-01-08T15:45:20;43.97;;;20.13;;